sensor_id;sensor_type;location;lat;lon;timestamp;temperature;humidity
25010;DHT22;13026;49.486;10.926;2022-07-29T00:01:49;21.70;58.90
25010;DHT22;13026;49.486;10.926;2022-07-29T00:04:15;21.80;58.70
25010;DHT22;13026;49.486;10.926;2022-07-29T00:06:40;21.80;58.40
25010;DHT22;13026;49.486;10.926;2022-07-29T00:09:06;21.80;58.90
25010;DHT22;13026;49.486;10.926;2022-07-29T00:11:32;21.90;59.10
25010;DHT22;13026;49.486;10.926;2022-07-29T00:13:57;21.90;58.50
25010;DHT22;13026;49.486;10.926;2022-07-29T00:16:23;21.90;58.10
25010;DHT22;13026;49.486;10.926;2022-07-29T00:18:48;21.90;57.90
25010;DHT22;13026;49.486;10.926;2022-07-29T00:21:14;21.90;58.00
25010;DHT22;13026;49.486;10.926;2022-07-29T00:23:40;22.00;58.20
25010;DHT22;13026;49.486;10.926;2022-07-29T00:26:05;22.00;58.10
25010;DHT22;13026;49.486;10.926;2022-07-29T00:28:31;22.00;57.80
25010;DHT22;13026;49.486;10.926;2022-07-29T00:30:56;22.00;57.50
25010;DHT22;13026;49.486;10.926;2022-07-29T00:33:22;22.00;57.90
25010;DHT22;13026;49.486;10.926;2022-07-29T00:35:47;22.00;57.80
25010;DHT22;13026;49.486;10.926;2022-07-29T00:38:20;22.00;57.90
25010;DHT22;13026;49.486;10.926;2022-07-29T00:40:46;22.00;57.70
25010;DHT22;13026;49.486;10.926;2022-07-29T00:43:13;22.00;57.50
25010;DHT22;13026;49.486;10.926;2022-07-29T00:45:39;22.00;58.20
25010;DHT22;13026;49.486;10.926;2022-07-29T00:48:06;22.00;58.70
25010;DHT22;13026;49.486;10.926;2022-07-29T00:50:32;22.10;58.20
25010;DHT22;13026;49.486;10.926;2022-07-29T00:52:58;22.10;58.20
25010;DHT22;13026;49.486;10.926;2022-07-29T00:55:24;22.00;58.50
25010;DHT22;13026;49.486;10.926;2022-07-29T00:57:50;22.00;59.10
25010;DHT22;13026;49.486;10.926;2022-07-29T01:00:24;22.00;58.80
25010;DHT22;13026;49.486;10.926;2022-07-29T01:02:50;22.00;57.50
25010;DHT22;13026;49.486;10.926;2022-07-29T01:05:20;22.00;57.30
25010;DHT22;13026;49.486;10.926;2022-07-29T01:07:48;22.00;56.90
25010;DHT22;13026;49.486;10.926;2022-07-29T01:10:15;22.00;57.50
25010;DHT22;13026;49.486;10.926;2022-07-29T01:12:44;22.00;57.80
25010;DHT22;13026;49.486;10.926;2022-07-29T01:15:10;22.00;59.20
25010;DHT22;13026;49.486;10.926;2022-07-29T01:26:04;21.80;58.90
25010;DHT22;13026;49.486;10.926;2022-07-29T01:31:25;21.80;61.30
25010;DHT22;13026;49.486;10.926;2022-07-29T01:33:58;21.70;62.60
25010;DHT22;13026;49.486;10.926;2022-07-29T01:36:31;21.60;62.70
25010;DHT22;13026;49.486;10.926;2022-07-29T01:39:23;21.60;63.60
25010;DHT22;13026;49.486;10.926;2022-07-29T01:42:19;21.50;63.90
25010;DHT22;13026;49.486;10.926;2022-07-29T01:44:59;21.40;63.70
25010;DHT22;13026;49.486;10.926;2022-07-29T01:47:38;21.30;62.60
25010;DHT22;13026;49.486;10.926;2022-07-29T01:50:08;21.30;62.80
25010;DHT22;13026;49.486;10.926;2022-07-29T01:52:58;21.20;64.40
25010;DHT22;13026;49.486;10.926;2022-07-29T01:55:29;21.10;65.20
25010;DHT22;13026;49.486;10.926;2022-07-29T01:57:57;21.10;66.00
25010;DHT22;13026;49.486;10.926;2022-07-29T02:00:25;21.00;66.90
25010;DHT22;13026;49.486;10.926;2022-07-29T02:02:52;20.90;67.30
25010;DHT22;13026;49.486;10.926;2022-07-29T02:05:21;20.90;67.00
25010;DHT22;13026;49.486;10.926;2022-07-29T02:07:48;20.90;65.50
25010;DHT22;13026;49.486;10.926;2022-07-29T02:10:14;20.90;65.70
25010;DHT22;13026;49.486;10.926;2022-07-29T02:12:43;20.80;66.00
25010;DHT22;13026;49.486;10.926;2022-07-29T02:15:09;20.80;66.40
25010;DHT22;13026;49.486;10.926;2022-07-29T02:17:44;20.80;65.60
25010;DHT22;13026;49.486;10.926;2022-07-29T02:20:11;20.70;65.40
25010;DHT22;13026;49.486;10.926;2022-07-29T02:22:39;20.60;65.80
25010;DHT22;13026;49.486;10.926;2022-07-29T02:25:06;20.60;66.70
25010;DHT22;13026;49.486;10.926;2022-07-29T02:27:34;20.50;66.80
25010;DHT22;13026;49.486;10.926;2022-07-29T02:30:03;20.50;67.60
25010;DHT22;13026;49.486;10.926;2022-07-29T02:32:30;20.50;68.60
25010;DHT22;13026;49.486;10.926;2022-07-29T02:34:58;20.40;68.90
25010;DHT22;13026;49.486;10.926;2022-07-29T02:37:25;20.40;68.90
25010;DHT22;13026;49.486;10.926;2022-07-29T02:39:52;20.30;69.10
25010;DHT22;13026;49.486;10.926;2022-07-29T02:42:19;20.30;69.20
25010;DHT22;13026;49.486;10.926;2022-07-29T02:44:46;20.30;70.00
25010;DHT22;13026;49.486;10.926;2022-07-29T02:47:25;20.20;70.70
25010;DHT22;13026;49.486;10.926;2022-07-29T02:50:23;20.20;69.90
25010;DHT22;13026;49.486;10.926;2022-07-29T02:53:05;20.20;69.20
25010;DHT22;13026;49.486;10.926;2022-07-29T02:55:40;20.10;69.30
25010;DHT22;13026;49.486;10.926;2022-07-29T02:58:21;20.00;69.20
25010;DHT22;13026;49.486;10.926;2022-07-29T03:00:49;20.00;70.00
25010;DHT22;13026;49.486;10.926;2022-07-29T03:03:17;19.90;69.40
25010;DHT22;13026;49.486;10.926;2022-07-29T03:05:44;19.80;69.40
25010;DHT22;13026;49.486;10.926;2022-07-29T03:08:11;19.80;69.90
25010;DHT22;13026;49.486;10.926;2022-07-29T03:10:44;19.70;70.10
25010;DHT22;13026;49.486;10.926;2022-07-29T03:13:11;19.70;70.30
25010;DHT22;13026;49.486;10.926;2022-07-29T03:15:38;19.50;70.10
25010;DHT22;13026;49.486;10.926;2022-07-29T03:18:04;19.50;70.10
25010;DHT22;13026;49.486;10.926;2022-07-29T03:20:30;19.40;71.10
25010;DHT22;13026;49.486;10.926;2022-07-29T03:22:56;19.40;71.50
25010;DHT22;13026;49.486;10.926;2022-07-29T03:25:21;19.40;71.80
25010;DHT22;13026;49.486;10.926;2022-07-29T03:27:48;19.30;72.10
25010;DHT22;13026;49.486;10.926;2022-07-29T03:30:14;19.30;72.40
25010;DHT22;13026;49.486;10.926;2022-07-29T03:32:40;19.30;72.70
25010;DHT22;13026;49.486;10.926;2022-07-29T03:35:06;19.20;73.30
25010;DHT22;13026;49.486;10.926;2022-07-29T03:37:34;19.20;73.20
25010;DHT22;13026;49.486;10.926;2022-07-29T03:40:02;19.20;73.60
25010;DHT22;13026;49.486;10.926;2022-07-29T03:42:31;19.20;74.10
25010;DHT22;13026;49.486;10.926;2022-07-29T03:45:00;19.10;74.00
25010;DHT22;13026;49.486;10.926;2022-07-29T03:47:28;19.10;74.40
25010;DHT22;13026;49.486;10.926;2022-07-29T03:50:02;19.10;74.20
25010;DHT22;13026;49.486;10.926;2022-07-29T03:52:31;19.10;74.10
25010;DHT22;13026;49.486;10.926;2022-07-29T03:54:57;19.00;74.10
25010;DHT22;13026;49.486;10.926;2022-07-29T03:57:24;19.00;74.60
25010;DHT22;13026;49.486;10.926;2022-07-29T03:59:52;19.00;74.40
25010;DHT22;13026;49.486;10.926;2022-07-29T04:02:18;18.90;74.00
25010;DHT22;13026;49.486;10.926;2022-07-29T04:04:44;18.90;74.40
25010;DHT22;13026;49.486;10.926;2022-07-29T04:07:14;18.80;74.80
25010;DHT22;13026;49.486;10.926;2022-07-29T04:09:40;18.80;74.40
25010;DHT22;13026;49.486;10.926;2022-07-29T04:12:06;18.80;74.00
25010;DHT22;13026;49.486;10.926;2022-07-29T04:14:33;18.80;73.80
25010;DHT22;13026;49.486;10.926;2022-07-29T04:16:59;18.80;73.60
25010;DHT22;13026;49.486;10.926;2022-07-29T04:19:25;18.70;73.50
25010;DHT22;13026;49.486;10.926;2022-07-29T04:21:50;18.60;73.70
25010;DHT22;13026;49.486;10.926;2022-07-29T04:24:16;18.60;74.00
25010;DHT22;13026;49.486;10.926;2022-07-29T04:26:42;18.50;73.90
25010;DHT22;13026;49.486;10.926;2022-07-29T04:29:07;18.50;73.80
25010;DHT22;13026;49.486;10.926;2022-07-29T04:31:33;18.50;73.80
25010;DHT22;13026;49.486;10.926;2022-07-29T04:33:58;18.50;73.90
25010;DHT22;13026;49.486;10.926;2022-07-29T04:36:24;18.50;74.20
25010;DHT22;13026;49.486;10.926;2022-07-29T04:38:49;18.40;74.40
25010;DHT22;13026;49.486;10.926;2022-07-29T04:41:15;18.40;74.60
25010;DHT22;13026;49.486;10.926;2022-07-29T04:43:40;18.40;75.00
25010;DHT22;13026;49.486;10.926;2022-07-29T04:46:06;18.40;75.40
25010;DHT22;13026;49.486;10.926;2022-07-29T04:48:32;18.50;75.40
25010;DHT22;13026;49.486;10.926;2022-07-29T04:50:58;18.50;75.80
25010;DHT22;13026;49.486;10.926;2022-07-29T04:53:23;18.50;75.70
25010;DHT22;13026;49.486;10.926;2022-07-29T04:55:49;18.50;75.40
25010;DHT22;13026;49.486;10.926;2022-07-29T04:58:15;18.50;75.70
25010;DHT22;13026;49.486;10.926;2022-07-29T05:00:40;18.60;75.50
25010;DHT22;13026;49.486;10.926;2022-07-29T05:03:06;18.60;75.10
25010;DHT22;13026;49.486;10.926;2022-07-29T05:05:31;18.60;74.60
25010;DHT22;13026;49.486;10.926;2022-07-29T05:07:57;18.60;74.30
25010;DHT22;13026;49.486;10.926;2022-07-29T05:10:23;18.60;74.20
25010;DHT22;13026;49.486;10.926;2022-07-29T05:12:48;18.60;74.70
25010;DHT22;13026;49.486;10.926;2022-07-29T05:15:14;18.70;75.30
25010;DHT22;13026;49.486;10.926;2022-07-29T05:17:39;18.70;75.70
25010;DHT22;13026;49.486;10.926;2022-07-29T05:20:06;18.70;75.50
25010;DHT22;13026;49.486;10.926;2022-07-29T05:22:31;18.80;75.60
25010;DHT22;13026;49.486;10.926;2022-07-29T05:24:57;18.80;76.00
25010;DHT22;13026;49.486;10.926;2022-07-29T05:27:22;18.80;76.30
25010;DHT22;13026;49.486;10.926;2022-07-29T05:29:48;18.90;76.50
25010;DHT22;13026;49.486;10.926;2022-07-29T05:32:13;18.80;76.50
25010;DHT22;13026;49.486;10.926;2022-07-29T05:34:40;18.90;76.40
25010;DHT22;13026;49.486;10.926;2022-07-29T05:37:05;18.90;76.10
25010;DHT22;13026;49.486;10.926;2022-07-29T05:39:31;18.90;76.00
25010;DHT22;13026;49.486;10.926;2022-07-29T05:41:56;19.00;75.90
25010;DHT22;13026;49.486;10.926;2022-07-29T05:44:22;19.10;76.10
25010;DHT22;13026;49.486;10.926;2022-07-29T05:46:48;19.20;76.10
25010;DHT22;13026;49.486;10.926;2022-07-29T05:49:13;19.30;75.40
25010;DHT22;13026;49.486;10.926;2022-07-29T05:51:38;19.40;75.50
25010;DHT22;13026;49.486;10.926;2022-07-29T05:54:04;19.50;75.90
25010;DHT22;13026;49.486;10.926;2022-07-29T05:56:29;19.60;75.60
25010;DHT22;13026;49.486;10.926;2022-07-29T05:58:55;19.70;74.90
25010;DHT22;13026;49.486;10.926;2022-07-29T06:01:20;19.90;74.10
25010;DHT22;13026;49.486;10.926;2022-07-29T06:03:46;20.00;74.30
25010;DHT22;13026;49.486;10.926;2022-07-29T06:06:12;20.10;73.30
25010;DHT22;13026;49.486;10.926;2022-07-29T06:08:37;20.30;72.60
25010;DHT22;13026;49.486;10.926;2022-07-29T06:11:04;20.40;71.10
25010;DHT22;13026;49.486;10.926;2022-07-29T06:13:30;20.50;69.30
25010;DHT22;13026;49.486;10.926;2022-07-29T06:15:56;20.70;68.50
25010;DHT22;13026;49.486;10.926;2022-07-29T06:18:22;20.90;67.50
25010;DHT22;13026;49.486;10.926;2022-07-29T06:20:47;21.10;67.10
25010;DHT22;13026;49.486;10.926;2022-07-29T06:23:13;21.20;66.80
25010;DHT22;13026;49.486;10.926;2022-07-29T06:25:40;21.40;66.30
25010;DHT22;13026;49.486;10.926;2022-07-29T06:28:05;21.50;66.30
25010;DHT22;13026;49.486;10.926;2022-07-29T06:30:31;21.60;66.60
25010;DHT22;13026;49.486;10.926;2022-07-29T06:32:56;21.70;66.00
25010;DHT22;13026;49.486;10.926;2022-07-29T06:35:22;21.80;65.40
25010;DHT22;13026;49.486;10.926;2022-07-29T06:37:47;21.80;65.10
25010;DHT22;13026;49.486;10.926;2022-07-29T06:40:13;21.90;65.10
25010;DHT22;13026;49.486;10.926;2022-07-29T06:42:42;21.90;65.10
25010;DHT22;13026;49.486;10.926;2022-07-29T06:45:08;22.00;64.90
25010;DHT22;13026;49.486;10.926;2022-07-29T06:47:34;22.10;64.90
25010;DHT22;13026;49.486;10.926;2022-07-29T06:50:00;22.30;64.50
25010;DHT22;13026;49.486;10.926;2022-07-29T06:52:25;22.40;63.80
25010;DHT22;13026;49.486;10.926;2022-07-29T06:54:51;22.50;63.60
25010;DHT22;13026;49.486;10.926;2022-07-29T06:57:16;22.60;63.50
25010;DHT22;13026;49.486;10.926;2022-07-29T06:59:42;22.80;63.30
25010;DHT22;13026;49.486;10.926;2022-07-29T07:02:07;23.00;63.20
25010;DHT22;13026;49.486;10.926;2022-07-29T07:04:33;23.20;62.80
25010;DHT22;13026;49.486;10.926;2022-07-29T07:06:58;23.40;61.90
25010;DHT22;13026;49.486;10.926;2022-07-29T07:09:24;23.50;61.30
25010;DHT22;13026;49.486;10.926;2022-07-29T07:11:50;23.60;61.70
25010;DHT22;13026;49.486;10.926;2022-07-29T07:14:15;23.70;61.30
25010;DHT22;13026;49.486;10.926;2022-07-29T07:16:41;23.80;61.10
25010;DHT22;13026;49.486;10.926;2022-07-29T07:19:06;23.90;61.20
25010;DHT22;13026;49.486;10.926;2022-07-29T07:21:33;23.90;60.80
25010;DHT22;13026;49.486;10.926;2022-07-29T07:23:59;24.00;60.40
25010;DHT22;13026;49.486;10.926;2022-07-29T07:26:25;24.00;60.30
25010;DHT22;13026;49.486;10.926;2022-07-29T07:28:51;24.10;60.40
25010;DHT22;13026;49.486;10.926;2022-07-29T07:31:16;24.20;60.70
25010;DHT22;13026;49.486;10.926;2022-07-29T07:33:42;24.30;60.60
25010;DHT22;13026;49.486;10.926;2022-07-29T07:36:07;24.40;60.20
25010;DHT22;13026;49.486;10.926;2022-07-29T07:38:33;24.40;60.20
25010;DHT22;13026;49.486;10.926;2022-07-29T07:40:59;24.40;59.90
25010;DHT22;13026;49.486;10.926;2022-07-29T07:43:25;24.40;59.70
25010;DHT22;13026;49.486;10.926;2022-07-29T07:45:50;24.40;59.50
25010;DHT22;13026;49.486;10.926;2022-07-29T07:48:16;24.50;59.70
25010;DHT22;13026;49.486;10.926;2022-07-29T07:50:41;24.60;59.80
25010;DHT22;13026;49.486;10.926;2022-07-29T07:53:07;24.80;59.30
25010;DHT22;13026;49.486;10.926;2022-07-29T07:55:32;24.80;59.40
25010;DHT22;13026;49.486;10.926;2022-07-29T07:57:58;24.90;59.40
25010;DHT22;13026;49.486;10.926;2022-07-29T08:00:23;24.90;59.20
25010;DHT22;13026;49.486;10.926;2022-07-29T08:02:49;25.00;58.90
25010;DHT22;13026;49.486;10.926;2022-07-29T08:05:15;25.10;58.80
25010;DHT22;13026;49.486;10.926;2022-07-29T08:07:41;25.20;58.60
25010;DHT22;13026;49.486;10.926;2022-07-29T08:10:07;25.20;58.70
25010;DHT22;13026;49.486;10.926;2022-07-29T08:12:32;25.30;58.80
25010;DHT22;13026;49.486;10.926;2022-07-29T08:14:58;25.50;58.90
25010;DHT22;13026;49.486;10.926;2022-07-29T08:17:23;25.60;58.90
25010;DHT22;13026;49.486;10.926;2022-07-29T08:19:49;25.70;58.30
25010;DHT22;13026;49.486;10.926;2022-07-29T08:22:14;25.90;58.30
25010;DHT22;13026;49.486;10.926;2022-07-29T08:24:40;26.00;57.60
25010;DHT22;13026;49.486;10.926;2022-07-29T08:27:06;26.10;57.70
25010;DHT22;13026;49.486;10.926;2022-07-29T08:29:32;26.20;57.20
25010;DHT22;13026;49.486;10.926;2022-07-29T08:31:57;26.40;57.10
25010;DHT22;13026;49.486;10.926;2022-07-29T08:34:23;26.60;56.80
25010;DHT22;13026;49.486;10.926;2022-07-29T08:36:48;26.90;56.00
25010;DHT22;13026;49.486;10.926;2022-07-29T08:39:14;27.10;55.00
25010;DHT22;13026;49.486;10.926;2022-07-29T08:41:40;27.20;54.80
25010;DHT22;13026;49.486;10.926;2022-07-29T08:44:06;27.40;54.00
25010;DHT22;13026;49.486;10.926;2022-07-29T08:46:31;27.60;55.00
25010;DHT22;13026;49.486;10.926;2022-07-29T08:48:57;27.80;55.00
25010;DHT22;13026;49.486;10.926;2022-07-29T08:51:24;28.10;54.30
25010;DHT22;13026;49.486;10.926;2022-07-29T08:53:50;28.20;52.80
25010;DHT22;13026;49.486;10.926;2022-07-29T08:56:17;28.10;52.40
25010;DHT22;13026;49.486;10.926;2022-07-29T08:58:44;28.10;52.70
25010;DHT22;13026;49.486;10.926;2022-07-29T09:01:12;28.30;52.70
25010;DHT22;13026;49.486;10.926;2022-07-29T09:03:40;28.50;51.20
25010;DHT22;13026;49.486;10.926;2022-07-29T09:06:06;28.50;50.90
25010;DHT22;13026;49.486;10.926;2022-07-29T09:08:32;28.40;51.40
25010;DHT22;13026;49.486;10.926;2022-07-29T09:10:58;28.20;50.70
25010;DHT22;13026;49.486;10.926;2022-07-29T09:13:26;28.20;51.60
25010;DHT22;13026;49.486;10.926;2022-07-29T09:15:52;28.30;50.90
25010;DHT22;13026;49.486;10.926;2022-07-29T09:18:37;28.30;50.00
25010;DHT22;13026;49.486;10.926;2022-07-29T09:21:05;28.40;50.80
25010;DHT22;13026;49.486;10.926;2022-07-29T09:23:31;28.60;50.90
25010;DHT22;13026;49.486;10.926;2022-07-29T09:26:05;28.80;50.40
25010;DHT22;13026;49.486;10.926;2022-07-29T09:28:31;28.90;50.10
25010;DHT22;13026;49.486;10.926;2022-07-29T09:30:57;28.80;49.70
25010;DHT22;13026;49.486;10.926;2022-07-29T09:33:33;28.90;48.90
25010;DHT22;13026;49.486;10.926;2022-07-29T09:36:08;28.80;49.70
25010;DHT22;13026;49.486;10.926;2022-07-29T09:38:35;28.80;49.30
25010;DHT22;13026;49.486;10.926;2022-07-29T09:41:03;28.80;49.70
25010;DHT22;13026;49.486;10.926;2022-07-29T09:43:29;28.90;49.00
25010;DHT22;13026;49.486;10.926;2022-07-29T09:45:55;29.00;49.70
25010;DHT22;13026;49.486;10.926;2022-07-29T09:48:23;29.10;49.80
25010;DHT22;13026;49.486;10.926;2022-07-29T09:50:49;29.10;48.50
25010;DHT22;13026;49.486;10.926;2022-07-29T09:53:36;29.30;47.40
25010;DHT22;13026;49.486;10.926;2022-07-29T09:56:03;29.40;47.70
25010;DHT22;13026;49.486;10.926;2022-07-29T09:58:28;29.40;48.40
25010;DHT22;13026;49.486;10.926;2022-07-29T10:00:55;29.40;48.60
25010;DHT22;13026;49.486;10.926;2022-07-29T10:03:21;29.30;48.10
25010;DHT22;13026;49.486;10.926;2022-07-29T10:06:07;29.30;47.70
25010;DHT22;13026;49.486;10.926;2022-07-29T10:08:33;29.40;48.10
25010;DHT22;13026;49.486;10.926;2022-07-29T10:11:10;29.50;48.20
25010;DHT22;13026;49.486;10.926;2022-07-29T10:13:36;29.60;47.90
25010;DHT22;13026;49.486;10.926;2022-07-29T10:16:01;29.60;47.50
25010;DHT22;13026;49.486;10.926;2022-07-29T10:18:27;29.60;47.10
25010;DHT22;13026;49.486;10.926;2022-07-29T10:20:53;29.70;46.60
25010;DHT22;13026;49.486;10.926;2022-07-29T10:23:20;30.00;45.90
25010;DHT22;13026;49.486;10.926;2022-07-29T10:25:45;30.30;48.10
25010;DHT22;13026;49.486;10.926;2022-07-29T10:28:11;30.60;45.90
25010;DHT22;13026;49.486;10.926;2022-07-29T10:30:38;30.60;46.10
25010;DHT22;13026;49.486;10.926;2022-07-29T10:33:28;30.60;44.50
25010;DHT22;13026;49.486;10.926;2022-07-29T10:36:06;30.70;43.80
25010;DHT22;13026;49.486;10.926;2022-07-29T10:44:08;30.80;44.50
25010;DHT22;13026;49.486;10.926;2022-07-29T10:46:36;30.90;43.30
25010;DHT22;13026;49.486;10.926;2022-07-29T10:51:57;30.90;43.80
25010;DHT22;13026;49.486;10.926;2022-07-29T10:54:39;30.90;43.30
25010;DHT22;13026;49.486;10.926;2022-07-29T10:57:27;30.90;42.50
25010;DHT22;13026;49.486;10.926;2022-07-29T11:04:59;30.80;43.30
25010;DHT22;13026;49.486;10.926;2022-07-29T11:07:26;30.70;43.40
25010;DHT22;13026;49.486;10.926;2022-07-29T11:15:09;30.90;43.00
25010;DHT22;13026;49.486;10.926;2022-07-29T11:23:25;30.80;42.30
25010;DHT22;13026;49.486;10.926;2022-07-29T11:28:38;30.80;42.50
25010;DHT22;13026;49.486;10.926;2022-07-29T11:31:05;31.00;43.60
25010;DHT22;13026;49.486;10.926;2022-07-29T11:33:33;31.40;43.50
25010;DHT22;13026;49.486;10.926;2022-07-29T11:36:14;31.50;42.20
25010;DHT22;13026;49.486;10.926;2022-07-29T11:38:40;31.70;40.60
25010;DHT22;13026;49.486;10.926;2022-07-29T11:41:21;31.70;40.00
25010;DHT22;13026;49.486;10.926;2022-07-29T11:43:50;31.50;40.50
25010;DHT22;13026;49.486;10.926;2022-07-29T11:49:02;31.20;41.20
25010;DHT22;13026;49.486;10.926;2022-07-29T11:51:28;31.30;40.90
25010;DHT22;13026;49.486;10.926;2022-07-29T11:53:53;31.60;40.80
25010;DHT22;13026;49.486;10.926;2022-07-29T11:56:21;31.60;40.70
25010;DHT22;13026;49.486;10.926;2022-07-29T11:58:47;31.40;41.30
25010;DHT22;13026;49.486;10.926;2022-07-29T12:01:14;31.40;41.20
25010;DHT22;13026;49.486;10.926;2022-07-29T12:03:41;31.40;41.80
25010;DHT22;13026;49.486;10.926;2022-07-29T12:06:12;31.50;41.30
25010;DHT22;13026;49.486;10.926;2022-07-29T12:08:42;31.40;41.40
25010;DHT22;13026;49.486;10.926;2022-07-29T12:11:16;31.40;42.10
25010;DHT22;13026;49.486;10.926;2022-07-29T12:13:41;31.60;41.70
25010;DHT22;13026;49.486;10.926;2022-07-29T12:16:07;31.70;42.50
25010;DHT22;13026;49.486;10.926;2022-07-29T12:18:32;32.00;42.20
25010;DHT22;13026;49.486;10.926;2022-07-29T12:20:59;32.10;40.80
25010;DHT22;13026;49.486;10.926;2022-07-29T12:23:25;32.10;40.10
25010;DHT22;13026;49.486;10.926;2022-07-29T12:25:50;31.90;40.10
25010;DHT22;13026;49.486;10.926;2022-07-29T12:28:17;31.90;39.80
25010;DHT22;13026;49.486;10.926;2022-07-29T12:30:48;31.90;40.20
25010;DHT22;13026;49.486;10.926;2022-07-29T12:33:26;32.10;39.20
25010;DHT22;13026;49.486;10.926;2022-07-29T12:35:54;32.10;40.20
25010;DHT22;13026;49.486;10.926;2022-07-29T12:38:21;32.00;40.00
25010;DHT22;13026;49.486;10.926;2022-07-29T12:40:48;31.90;40.20
25010;DHT22;13026;49.486;10.926;2022-07-29T12:43:18;31.90;40.00
25010;DHT22;13026;49.486;10.926;2022-07-29T12:45:53;31.70;39.50
25010;DHT22;13026;49.486;10.926;2022-07-29T12:48:36;31.70;39.60
25010;DHT22;13026;49.486;10.926;2022-07-29T12:51:04;31.70;38.90
25010;DHT22;13026;49.486;10.926;2022-07-29T12:53:30;31.80;39.10
25010;DHT22;13026;49.486;10.926;2022-07-29T12:55:57;31.90;38.50
25010;DHT22;13026;49.486;10.926;2022-07-29T12:58:31;32.00;38.30
25010;DHT22;13026;49.486;10.926;2022-07-29T13:01:15;31.90;38.20
25010;DHT22;13026;49.486;10.926;2022-07-29T13:03:55;31.80;39.10
25010;DHT22;13026;49.486;10.926;2022-07-29T13:06:57;31.70;38.90
25010;DHT22;13026;49.486;10.926;2022-07-29T13:09:23;31.80;38.70
25010;DHT22;13026;49.486;10.926;2022-07-29T13:11:50;32.00;38.50
25010;DHT22;13026;49.486;10.926;2022-07-29T13:14:39;32.30;39.30
25010;DHT22;13026;49.486;10.926;2022-07-29T13:17:15;32.80;39.50
25010;DHT22;13026;49.486;10.926;2022-07-29T13:19:49;33.00;38.50
25010;DHT22;13026;49.486;10.926;2022-07-29T13:22:22;32.90;38.50
25010;DHT22;13026;49.486;10.926;2022-07-29T13:27:19;32.70;38.90
25010;DHT22;13026;49.486;10.926;2022-07-29T13:29:46;32.40;39.50
25010;DHT22;13026;49.486;10.926;2022-07-29T13:32:13;32.20;39.80
25010;DHT22;13026;49.486;10.926;2022-07-29T13:34:39;31.90;40.00
25010;DHT22;13026;49.486;10.926;2022-07-29T13:37:05;31.70;41.00
25010;DHT22;13026;49.486;10.926;2022-07-29T13:39:30;31.40;42.00
25010;DHT22;13026;49.486;10.926;2022-07-29T13:41:56;31.20;41.60
25010;DHT22;13026;49.486;10.926;2022-07-29T13:44:22;31.00;41.40
25010;DHT22;13026;49.486;10.926;2022-07-29T13:46:47;30.90;41.40
25010;DHT22;13026;49.486;10.926;2022-07-29T13:49:13;30.60;42.10
25010;DHT22;13026;49.486;10.926;2022-07-29T13:51:38;30.40;43.20
25010;DHT22;13026;49.486;10.926;2022-07-29T13:54:04;30.00;44.30
25010;DHT22;13026;49.486;10.926;2022-07-29T13:56:30;29.80;45.20
25010;DHT22;13026;49.486;10.926;2022-07-29T13:58:56;29.50;46.00
25010;DHT22;13026;49.486;10.926;2022-07-29T14:01:21;29.40;46.60
25010;DHT22;13026;49.486;10.926;2022-07-29T14:03:47;29.20;47.40
25010;DHT22;13026;49.486;10.926;2022-07-29T14:06:12;29.00;51.00
25010;DHT22;13026;49.486;10.926;2022-07-29T14:08:38;28.80;53.40
25010;DHT22;13026;49.486;10.926;2022-07-29T14:11:04;28.50;56.00
25010;DHT22;13026;49.486;10.926;2022-07-29T14:13:29;28.10;57.50
25010;DHT22;13026;49.486;10.926;2022-07-29T14:15:55;27.70;59.40
25010;DHT22;13026;49.486;10.926;2022-07-29T14:18:21;27.30;61.90
25010;DHT22;13026;49.486;10.926;2022-07-29T14:20:46;27.00;62.10
25010;DHT22;13026;49.486;10.926;2022-07-29T14:23:12;26.80;63.20
25010;DHT22;13026;49.486;10.926;2022-07-29T14:25:37;26.70;62.10
25010;DHT22;13026;49.486;10.926;2022-07-29T14:28:03;26.50;61.60
25010;DHT22;13026;49.486;10.926;2022-07-29T14:30:28;26.40;62.60
25010;DHT22;13026;49.486;10.926;2022-07-29T14:32:57;26.40;60.30
25010;DHT22;13026;49.486;10.926;2022-07-29T14:35:22;26.40;61.80
25010;DHT22;13026;49.486;10.926;2022-07-29T14:37:48;26.40;62.60
25010;DHT22;13026;49.486;10.926;2022-07-29T14:40:14;26.30;59.30
25010;DHT22;13026;49.486;10.926;2022-07-29T14:42:39;26.30;59.10
25010;DHT22;13026;49.486;10.926;2022-07-29T14:45:08;26.30;58.10
25010;DHT22;13026;49.486;10.926;2022-07-29T14:47:33;26.20;58.60
25010;DHT22;13026;49.486;10.926;2022-07-29T14:49:59;26.00;60.00
25010;DHT22;13026;49.486;10.926;2022-07-29T14:52:24;25.90;61.90
25010;DHT22;13026;49.486;10.926;2022-07-29T14:54:50;25.80;62.70
25010;DHT22;13026;49.486;10.926;2022-07-29T14:57:15;25.70;64.50
25010;DHT22;13026;49.486;10.926;2022-07-29T14:59:41;25.60;69.00
25010;DHT22;13026;49.486;10.926;2022-07-29T15:02:07;25.40;69.10
25010;DHT22;13026;49.486;10.926;2022-07-29T15:04:32;25.30;71.30
25010;DHT22;13026;49.486;10.926;2022-07-29T15:06:58;25.10;73.40
25010;DHT22;13026;49.486;10.926;2022-07-29T15:09:23;25.00;74.00
25010;DHT22;13026;49.486;10.926;2022-07-29T15:11:49;24.90;75.60
25010;DHT22;13026;49.486;10.926;2022-07-29T15:14:14;24.90;76.20
25010;DHT22;13026;49.486;10.926;2022-07-29T15:16:40;24.90;76.30
25010;DHT22;13026;49.486;10.926;2022-07-29T15:19:06;24.90;76.00
25010;DHT22;13026;49.486;10.926;2022-07-29T15:21:31;24.80;76.00
25010;DHT22;13026;49.486;10.926;2022-07-29T15:23:57;24.50;77.70
25010;DHT22;13026;49.486;10.926;2022-07-29T15:26:22;24.10;79.30
25010;DHT22;13026;49.486;10.926;2022-07-29T15:28:48;23.80;83.20
25010;DHT22;13026;49.486;10.926;2022-07-29T15:31:13;23.50;85.30
25010;DHT22;13026;49.486;10.926;2022-07-29T15:33:39;23.10;87.80
25010;DHT22;13026;49.486;10.926;2022-07-29T15:36:05;22.90;90.20
25010;DHT22;13026;49.486;10.926;2022-07-29T15:38:30;22.70;90.20
25010;DHT22;13026;49.486;10.926;2022-07-29T15:40:56;22.50;90.70
25010;DHT22;13026;49.486;10.926;2022-07-29T15:43:22;22.40;91.00
25010;DHT22;13026;49.486;10.926;2022-07-29T15:45:48;22.30;91.70
25010;DHT22;13026;49.486;10.926;2022-07-29T15:48:13;22.30;92.40
25010;DHT22;13026;49.486;10.926;2022-07-29T15:50:39;22.30;92.60
25010;DHT22;13026;49.486;10.926;2022-07-29T15:53:05;22.30;92.90
25010;DHT22;13026;49.486;10.926;2022-07-29T15:55:30;22.30;93.40
25010;DHT22;13026;49.486;10.926;2022-07-29T15:57:56;22.40;94.10
25010;DHT22;13026;49.486;10.926;2022-07-29T16:00:21;22.40;94.30
25010;DHT22;13026;49.486;10.926;2022-07-29T16:02:47;22.30;94.50